Time;durP1;ratioP1;P1;durP2;ratioP2;P2;SDS_P1;SDS_P2;PMS_P1;PMS_P2;Temp;Humidity;BMP_temperature;BMP_pressure;BME280_temperature;BME280_humidity;BME280_pressure;Samples;Min_cycle;Max_cycle;Signal;HPM_P1;HPM_P2
2023/09/26 00:01:51;;;;;;;;;;;;;;;15.89;75.25;102012.06;4113669;28;19926;-73
2023/09/26 00:03:53;;;;;;;;;;;;;;;15.89;75.37;102013.94;4113591;28;20014;-75
2023/09/26 00:05:55;;;;;;;;;;;;;;;15.88;75.36;102002.22;4113483;28;20024;-74
2023/09/26 00:08:02;;;;;;;;;;;;;;;15.89;75.32;102005.78;4128108;28;20029;-73
2023/09/26 00:10:04;;;;;;;;;;;;;;;15.89;75.08;102009.34;4113572;28;20328;-73
2023/09/26 00:12:07;;;;;;;;;;;;;;;15.88;75.40;102009.50;4113465;28;20029;-73
2023/09/26 00:14:09;;;;;;;;;;;;;;;15.87;75.24;102005.97;4112434;28;20044;-73
2023/09/26 00:16:12;;;;;;;;;;;;;;;15.84;75.41;102009.03;4112193;28;20021;-73
2023/09/26 00:18:15;;;;;;;;;;;;;;;15.82;75.17;102008.38;4113809;28;20029;-73
2023/09/26 00:20:18;;;;;;;;;;;;;;;15.76;75.33;102003.63;4113383;28;20649;-75
2023/09/26 00:22:20;;;;;;;;;;;;;;;15.73;75.54;102003.97;4113473;28;20444;-73
2023/09/26 00:24:22;;;;;;;;;;;;;;;15.69;75.72;102000.78;4112172;28;20400;-73
2023/09/26 00:26:23;;;;;;;;;;;;;;;15.64;75.76;102001.31;4113295;28;20454;-74
2023/09/26 00:28:25;;;;;;;;;;;;;;;15.62;76.23;102006.06;4112030;28;19926;-73
2023/09/26 00:30:27;;;;;;;;;;;;;;;15.63;75.93;102005.06;4111747;28;20005;-72
2023/09/26 00:32:30;;;;;;;;;;;;;;;15.62;75.96;102005.25;4112515;28;20032;-73
2023/09/26 00:34:33;;;;;;;;;;;;;;;15.59;75.81;102002.88;4111744;28;20008;-73
2023/09/26 00:36:35;;;;;;;;;;;;;;;15.58;76.26;102001.16;4112443;28;20041;-73
2023/09/26 00:38:38;;;;;;;;;;;;;;;15.56;76.11;101998.63;4113596;28;20009;-73
2023/09/26 00:40:40;;;;;;;;;;;;;;;15.54;76.30;101999.84;4110372;28;20363;-75
2023/09/26 00:42:42;;;;;;;;;;;;;;;15.54;76.38;101997.13;4112978;28;20008;-72
2023/09/26 00:44:44;;;;;;;;;;;;;;;15.53;76.38;102001.69;4113143;28;20021;-73
2023/09/26 00:46:46;;;;;;;;;;;;;;;15.51;76.16;102001.03;4120091;28;20009;-74
2023/09/26 00:48:48;;;;;;;;;;;;;;;15.49;76.53;102006.66;4112606;28;19922;-73
2023/09/26 00:50:52;;;;;;;;;;;;;;;15.49;76.42;102003.09;4095558;29;20408;-74
2023/09/26 00:52:54;;;;;;;;;;;;;;;15.50;76.48;102004.78;4111727;28;20017;-73
2023/09/26 00:54:55;;;;;;;;;;;;;;;15.49;76.45;102000.38;4109711;28;20029;-73
2023/09/26 00:56:57;;;;;;;;;;;;;;;15.48;76.21;102002.25;4111566;28;19926;-72
2023/09/26 00:58:58;;;;;;;;;;;;;;;15.48;76.61;101995.97;4112452;28;20020;-73
2023/09/26 01:01:00;;;;;;;;;;;;;;;15.48;76.21;101991.34;4110295;28;20479;-73
2023/09/26 01:03:03;;;;;;;;;;;;;;;15.48;76.18;101988.63;4112776;28;20012;-73
2023/09/26 01:05:06;;;;;;;;;;;;;;;15.48;76.14;101987.78;4111852;28;20392;-73
2023/09/26 01:07:09;;;;;;;;;;;;;;;15.45;76.30;101990.88;4113291;28;20065;-73
2023/09/26 01:09:11;;;;;;;;;;;;;;;15.46;76.22;101984.41;4110634;28;20025;-74
2023/09/26 01:11:15;;;;;;;;;;;;;;;15.46;76.31;101976.25;4110975;28;20020;-73
2023/09/26 01:13:17;;;;;;;;;;;;;;;15.44;76.18;101976.41;4112829;28;20024;-73
2023/09/26 01:15:30;;;;;;;;;;;;;;;15.42;76.55;101975.75;4095252;28;19965;-73
2023/09/26 01:17:32;;;;;;;;;;;;;;;15.43;76.74;101971.16;4112447;28;20016;-73
2023/09/26 01:19:35;;;;;;;;;;;;;;;15.41;76.67;101979.50;4112537;28;20017;-72
2023/09/26 01:21:37;;;;;;;;;;;;;;;15.42;76.66;101983.06;4113207;28;20017;-74
2023/09/26 01:23:40;;;;;;;;;;;;;;;15.40;76.69;101983.25;4104980;28;20008;-73
2023/09/26 01:25:44;;;;;;;;;;;;;;;15.40;76.79;101985.13;4114032;28;20371;-72
2023/09/26 01:27:45;;;;;;;;;;;;;;;15.39;76.65;101984.28;4122633;28;20380;-73
2023/09/26 01:29:47;;;;;;;;;;;;;;;15.39;76.71;101977.97;4113296;28;19950;-74
2023/09/26 01:31:49;;;;;;;;;;;;;;;15.39;76.53;101986.13;4130126;28;20021;-73
2023/09/26 01:33:51;;;;;;;;;;;;;;;15.40;76.90;101987.84;4114860;28;20024;-73
2023/09/26 01:35:53;;;;;;;;;;;;;;;15.39;76.45;101976.13;4114642;28;20036;-73
2023/09/26 01:37:55;;;;;;;;;;;;;;;15.40;76.54;101975.06;4116343;28;20012;-73
2023/09/26 01:39:57;;;;;;;;;;;;;;;15.39;76.79;101978.84;4113416;28;20016;-72
2023/09/26 01:42:00;;;;;;;;;;;;;;;15.38;76.71;101979.84;4116371;28;20012;-73
2023/09/26 01:44:05;;;;;;;;;;;;;;;15.37;76.89;101980.03;4115744;28;20009;-72
2023/09/26 01:46:09;;;;;;;;;;;;;;;15.36;76.98;101981.03;4114802;28;19981;-73
2023/09/26 01:48:12;;;;;;;;;;;;;;;15.37;76.93;101985.47;4116238;28;20377;-73
2023/09/26 01:50:14;;;;;;;;;;;;;;;15.37;76.89;101974.59;4115076;28;19950;-73
2023/09/26 01:52:16;;;;;;;;;;;;;;;15.35;76.75;101969.31;4114126;28;20012;-73
2023/09/26 01:54:19;;;;;;;;;;;;;;;15.35;76.80;101973.94;4122306;28;20020;-74
2023/09/26 01:56:21;;;;;;;;;;;;;;;15.33;76.76;101965.94;4115879;28;20016;-73
2023/09/26 01:58:24;;;;;;;;;;;;;;;15.31;77.44;101963.41;4115837;28;20001;-73
2023/09/26 02:00:26;;;;;;;;;;;;;;;15.29;77.25;101961.88;4113680;28;20009;-74
2023/09/26 02:02:27;;;;;;;;;;;;;;;15.28;77.49;101969.19;4115418;28;20016;-74
2023/09/26 02:04:29;;;;;;;;;;;;;;;15.27;77.61;101972.94;4115407;28;20033;-73
2023/09/26 02:06:33;;;;;;;;;;;;;;;15.27;77.31;101970.22;4115802;28;20020;-73
2023/09/26 02:08:35;;;;;;;;;;;;;;;15.28;77.06;101973.78;4112941;28;20012;-74
2023/09/26 02:10:37;;;;;;;;;;;;;;;15.27;77.12;101967.50;4114124;28;20395;-75
2023/09/26 02:12:40;;;;;;;;;;;;;;;15.25;77.15;101968.69;4106564;28;20038;-75
2023/09/26 02:14:43;;;;;;;;;;;;;;;15.20;77.37;101971.09;4113801;28;20028;-74
2023/09/26 02:16:45;;;;;;;;;;;;;;;15.13;77.82;101966.38;4097829;29;20025;-74
2023/09/26 02:18:47;;;;;;;;;;;;;;;15.11;77.95;101962.16;4121868;28;20009;-74
2023/09/26 02:20:49;;;;;;;;;;;;;;;15.11;77.95;101968.44;4120733;28;20013;-73
2023/09/26 02:22:52;;;;;;;;;;;;;;;15.11;78.21;101960.25;4114653;28;20360;-73
2023/09/26 02:24:53;;;;;;;;;;;;;;;15.11;78.26;101965.69;4115127;28;20020;-73
2023/09/26 02:26:56;;;;;;;;;;;;;;;15.09;77.63;101970.47;4106910;28;20033;-73
2023/09/26 02:28:58;;;;;;;;;;;;;;;15.08;78.02;101971.50;4115267;28;20722;-73
2023/09/26 02:31:02;;;;;;;;;;;;;;;15.07;78.02;101969.78;4114389;28;19984;-74
2023/09/26 02:33:04;;;;;;;;;;;;;;;15.06;78.30;101967.25;4114260;28;20025;-74
2023/09/26 02:35:06;;;;;;;;;;;;;;;15.05;77.93;101971.00;4115513;28;20021;-74
2023/09/26 02:37:08;;;;;;;;;;;;;;;15.05;77.96;101969.13;4113304;28;20017;-74
2023/09/26 02:39:10;;;;;;;;;;;;;;;15.04;77.88;101970.16;4105679;28;20017;-73
2023/09/26 02:41:13;;;;;;;;;;;;;;;15.03;78.06;101971.19;4114018;28;20008;-73
2023/09/26 02:43:14;;;;;;;;;;;;;;;15.01;77.86;101978.66;4115376;28;20037;-74
2023/09/26 02:45:16;;;;;;;;;;;;;;;15.01;78.01;101975.09;4114887;28;19926;-73
2023/09/26 02:47:19;;;;;;;;;;;;;;;14.99;78.12;101978.00;4113574;28;20009;-73
2023/09/26 02:49:21;;;;;;;;;;;;;;;14.98;78.23;101973.56;4114580;28;20056;-73
2023/09/26 02:51:22;;;;;;;;;;;;;;;14.97;78.56;101971.91;4114969;28;19922;-74
2023/09/26 02:53:24;;;;;;;;;;;;;;;14.97;78.16;101974.63;4114795;28;19976;-73
2023/09/26 02:55:26;;;;;;;;;;;;;;;14.98;78.34;101980.88;4113675;28;20016;-73
2023/09/26 02:57:28;;;;;;;;;;;;;;;14.96;78.33;101971.03;4114825;28;20021;-75
2023/09/26 02:59:30;;;;;;;;;;;;;;;14.97;77.86;101971.91;4113241;28;20017;-74
2023/09/26 03:01:32;;;;;;;;;;;;;;;14.98;78.03;101967.28;4113459;28;20039;-75
2023/09/26 03:03:36;;;;;;;;;;;;;;;14.98;77.89;101972.72;4112877;28;20020;-73
2023/09/26 03:05:39;;;;;;;;;;;;;;;14.96;77.77;101979.19;4105166;28;20850;-74
2023/09/26 03:07:40;;;;;;;;;;;;;;;14.93;78.04;101974.09;4112983;28;20012;-74
2023/09/26 03:09:42;;;;;;;;;;;;;;;14.92;77.98;101980.56;4114287;28;20037;-75
2023/09/26 03:11:44;;;;;;;;;;;;;;;14.89;77.99;101972.78;4114125;28;19933;-74
2023/09/26 03:13:46;;;;;;;;;;;;;;;14.87;78.10;101979.41;4114423;28;20012;-74
2023/09/26 03:15:54;;;;;;;;;;;;;;;14.86;78.34;101980.41;4112585;28;20491;-73
2023/09/26 03:17:56;;;;;;;;;;;;;;;14.85;78.44;101982.28;4112954;28;20037;-73
2023/09/26 03:20:00;;;;;;;;;;;;;;;14.85;78.18;101974.13;4112663;28;20018;-75
2023/09/26 03:22:03;;;;;;;;;;;;;;;14.84;78.33;101969.69;4111709;28;20012;-73
2023/09/26 03:24:05;;;;;;;;;;;;;;;14.82;78.23;101977.19;4114445;28;20016;-74
2023/09/26 03:26:10;;;;;;;;;;;;;;;14.78;78.36;101965.84;4097268;28;20333;-74
2023/09/26 03:28:12;;;;;;;;;;;;;;;14.76;78.38;101961.59;4119650;28;20026;-74
2023/09/26 03:30:15;;;;;;;;;;;;;;;14.76;78.75;101965.16;4120753;28;20020;-72
2023/09/26 03:32:18;;;;;;;;;;;;;;;14.77;78.50;101960.56;4103993;28;19961;-75
2023/09/26 03:34:20;;;;;;;;;;;;;;;14.76;78.36;101954.28;4114198;28;20020;-74
2023/09/26 03:36:23;;;;;;;;;;;;;;;14.76;78.59;101954.28;4105872;28;20028;-75
2023/09/26 03:38:25;;;;;;;;;;;;;;;14.74;78.54;101956.31;4112337;28;20020;-73
2023/09/26 03:40:26;;;;;;;;;;;;;;;14.72;78.57;101950.22;4113343;28;20009;-74
2023/09/26 03:42:28;;;;;;;;;;;;;;;14.70;78.88;101946.81;4111150;28;19997;-74
2023/09/26 03:44:30;;;;;;;;;;;;;;;14.69;78.72;101950.56;4113849;28;20343;-75
2023/09/26 03:46:32;;;;;;;;;;;;;;;14.69;78.70;101949.72;4113771;28;20021;-73
2023/09/26 03:48:34;;;;;;;;;;;;;;;14.68;78.67;101948.84;4112878;28;20016;-74
2023/09/26 03:50:36;;;;;;;;;;;;;;;14.68;78.99;101950.72;4113370;28;20116;-74
2023/09/26 03:52:40;;;;;;;;;;;;;;;14.68;78.86;101948.03;4112946;28;19929;-74
2023/09/26 03:54:42;;;;;;;;;;;;;;;14.66;79.07;101940.03;4114058;28;20523;-72
2023/09/26 03:56:44;;;;;;;;;;;;;;;14.67;79.00;101949.03;4114097;28;20017;-72
2023/09/26 03:58:46;;;;;;;;;;;;;;;14.67;79.20;101949.03;4114144;28;20018;-72
2023/09/26 04:00:48;;;;;;;;;;;;;;;14.67;79.34;101949.91;4113078;28;20016;-74
2023/09/26 04:02:50;;;;;;;;;;;;;;;14.66;79.11;101952.78;4112810;28;20017;-75
2023/09/26 04:04:52;;;;;;;;;;;;;;;14.66;79.30;101942.75;4114078;28;20021;-74
2023/09/26 04:06:54;;;;;;;;;;;;;;;14.64;79.42;101943.94;4112417;28;20024;-74
2023/09/26 04:08:57;;;;;;;;;;;;;;;14.63;79.65;101942.25;4128110;28;20008;-74
2023/09/26 04:10:59;;;;;;;;;;;;;;;14.62;79.75;101941.41;4113653;28;19953;-72
2023/09/26 04:13:02;;;;;;;;;;;;;;;14.62;79.79;101935.97;4113482;28;19926;-73
2023/09/26 04:15:05;;;;;;;;;;;;;;;14.61;79.50;101937.00;4113364;28;20021;-74
2023/09/26 04:17:07;;;;;;;;;;;;;;;14.60;79.75;101938.84;4112237;28;20045;-74
2023/09/26 04:19:09;;;;;;;;;;;;;;;14.59;79.74;101933.56;4113150;28;20337;-74
2023/09/26 04:21:11;;;;;;;;;;;;;;;14.59;80.05;101933.56;4112798;28;20029;-72
2023/09/26 04:23:12;;;;;;;;;;;;;;;14.60;80.00;101932.56;4112295;28;19965;-72
2023/09/26 04:25:15;;;;;;;;;;;;;;;14.59;79.86;101937.13;4112271;28;19922;-74
2023/09/26 04:27:17;;;;;;;;;;;;;;;14.60;79.56;101936.13;4113420;28;20363;-73
2023/09/26 04:29:20;;;;;;;;;;;;;;;14.60;79.88;101936.13;4113779;28;20009;-73
2023/09/26 04:31:22;;;;;;;;;;;;;;;14.58;79.77;101935.44;4112169;28;20033;-74
2023/09/26 04:33:24;;;;;;;;;;;;;;;14.57;79.60;101941.03;4112519;28;20392;-72
2023/09/26 04:35:25;;;;;;;;;;;;;;;14.57;79.86;101941.03;4112821;28;20032;-73
2023/09/26 04:37:27;;;;;;;;;;;;;;;14.58;79.60;101937.31;4113373;28;19925;-74
2023/09/26 04:39:29;;;;;;;;;;;;;;;14.58;79.25;101940.03;4112069;28;20033;-75
2023/09/26 04:41:32;;;;;;;;;;;;;;;14.57;79.47;101931.00;4111358;28;20432;-73
2023/09/26 04:43:34;;;;;;;;;;;;;;;14.56;79.63;101937.50;4112675;28;20460;-74
2023/09/26 04:45:36;;;;;;;;;;;;;;;14.55;79.52;101929.50;4113062;28;20021;-74
2023/09/26 04:47:37;;;;;;;;;;;;;;;14.53;79.74;101931.53;4113140;28;20004;-72
2023/09/26 04:49:39;;;;;;;;;;;;;;;14.51;79.52;101934.41;4112479;28;20384;-74
2023/09/26 04:51:41;;;;;;;;;;;;;;;14.52;79.72;101933.41;4111764;28;20017;-73
2023/09/26 04:53:43;;;;;;;;;;;;;;;14.53;79.83;101934.25;4112151;28;20020;-72
2023/09/26 04:55:46;;;;;;;;;;;;;;;14.52;79.85;101932.56;4112133;28;20029;-74
2023/09/26 04:57:49;;;;;;;;;;;;;;;14.52;79.72;101927.13;4113106;28;20009;-74
2023/09/26 04:59:51;;;;;;;;;;;;;;;14.52;79.64;101918.97;4114451;28;20009;-73
2023/09/26 05:01:53;;;;;;;;;;;;;;;14.52;79.78;101918.97;4114307;28;20032;-72
2023/09/26 05:03:55;;;;;;;;;;;;;;;14.52;79.72;101916.25;4116430;28;20020;-74
2023/09/26 05:05:57;;;;;;;;;;;;;;;14.51;79.69;101915.38;4117207;28;20368;-72
2023/09/26 05:07:59;;;;;;;;;;;;;;;14.51;79.45;101920.00;4116405;28;20009;-74
2023/09/26 05:10:01;;;;;;;;;;;;;;;14.52;79.45;101921.69;4122077;28;20012;-75
2023/09/26 05:12:03;;;;;;;;;;;;;;;14.51;79.54;101923.53;4115973;28;20053;-75
2023/09/26 05:14:07;;;;;;;;;;;;;;;14.48;79.76;101918.50;4116199;28;19922;-72
2023/09/26 05:16:09;;;;;;;;;;;;;;;14.48;79.86;101921.22;4115607;28;20028;-73
2023/09/26 05:18:11;;;;;;;;;;;;;;;14.46;79.97;101925.13;4115845;28;20009;-74
2023/09/26 05:20:13;;;;;;;;;;;;;;;14.43;80.03;101923.56;4115810;28;20021;-75
2023/09/26 05:22:15;;;;;;;;;;;;;;;14.40;80.11;101916.63;4115615;28;20350;-73
2023/09/26 05:24:17;;;;;;;;;;;;;;;14.38;80.33;101921.38;4115172;28;20057;-74
2023/09/26 05:26:19;;;;;;;;;;;;;;;14.37;80.59;101919.69;4115595;28;20424;-74
2023/09/26 05:28:20;;;;;;;;;;;;;;;14.37;80.23;101925.13;4114906;28;20395;-72
2023/09/26 05:30:23;;;;;;;;;;;;;;;14.38;80.33;101923.25;4114246;28;20519;-73
2023/09/26 05:32:24;;;;;;;;;;;;;;;14.38;80.12;101920.53;4115228;28;20052;-75
2023/09/26 05:34:26;;;;;;;;;;;;;;;14.38;80.19;101920.53;4115629;28;20352;-75
2023/09/26 05:36:28;;;;;;;;;;;;;;;14.36;80.16;101934.31;4115473;28;20028;-72
2023/09/26 05:38:30;;;;;;;;;;;;;;;14.34;80.00;101928.19;4116168;28;20021;-74
2023/09/26 05:40:33;;;;;;;;;;;;;;;14.33;80.38;101929.22;4113069;28;19973;-74
2023/09/26 05:42:35;;;;;;;;;;;;;;;14.34;80.18;101933.63;4115928;28;20484;-72
2023/09/26 05:44:38;;;;;;;;;;;;;;;14.35;80.12;101931.75;4116765;28;20391;-74
2023/09/26 05:46:41;;;;;;;;;;;;;;;14.35;79.91;101918.16;4116160;28;20013;-72
2023/09/26 05:48:43;;;;;;;;;;;;;;;14.34;80.16;101925.47;4116021;28;20053;-72
2023/09/26 05:50:45;;;;;;;;;;;;;;;14.35;80.11;101929.03;4115788;28;20022;-75
2023/09/26 05:52:47;;;;;;;;;;;;;;;14.35;80.08;101929.03;4115604;28;20029;-75
2023/09/26 05:54:49;;;;;;;;;;;;;;;14.35;80.30;101923.59;4115690;28;20452;-73
2023/09/26 05:56:51;;;;;;;;;;;;;;;14.34;80.49;101933.63;4115181;28;20020;-74
2023/09/26 05:58:53;;;;;;;;;;;;;;;14.35;80.25;101934.47;4115733;28;20024;-74
2023/09/26 06:00:56;;;;;;;;;;;;;;;14.37;80.24;101929.69;4114669;28;20013;-76
2023/09/26 06:03:00;;;;;;;;;;;;;;;14.40;79.93;101921.22;4114996;28;20025;-75
2023/09/26 06:05:02;;;;;;;;;;;;;;;14.44;80.06;101922.56;4115183;28;20049;-74
2023/09/26 06:07:04;;;;;;;;;;;;;;;14.48;79.99;101932.09;4115007;28;20358;-72
2023/09/26 06:09:05;;;;;;;;;;;;;;;14.52;80.25;101933.41;4112238;28;20032;-74
2023/09/26 06:11:09;;;;;;;;;;;;;;;14.53;80.48;101936.97;4110351;28;20021;-74
2023/09/26 06:13:13;;;;;;;;;;;;;;;14.55;80.62;101941.22;4113495;28;20024;-75
2023/09/26 06:15:14;;;;;;;;;;;;;;;14.58;80.98;101937.31;4114181;28;20397;-75
2023/09/26 06:17:16;;;;;;;;;;;;;;;14.59;80.82;101941.72;4114688;28;19969;-73
2023/09/26 06:19:19;;;;;;;;;;;;;;;14.62;80.82;101941.41;4114561;28;20022;-73
2023/09/26 06:21:21;;;;;;;;;;;;;;;14.65;80.68;101935.59;4114427;28;20021;-74
2023/09/26 06:23:23;;;;;;;;;;;;;;;14.67;80.41;101939.03;4115577;28;20052;-74
2023/09/26 06:25:24;;;;;;;;;;;;;;;14.69;81.07;101936.13;4115456;28;20016;-73
2023/09/26 06:27:27;;;;;;;;;;;;;;;14.72;80.58;101935.78;4113915;28;19965;-75
2023/09/26 06:29:29;;;;;;;;;;;;;;;14.74;80.84;101940.00;4114296;28;20017;-75
2023/09/26 06:31:31;;;;;;;;;;;;;;;14.77;80.55;101947.81;4114447;28;20013;-75
2023/09/26 06:33:33;;;;;;;;;;;;;;;14.82;81.04;101947.28;4114947;28;20068;-75
2023/09/26 06:35:37;;;;;;;;;;;;;;;14.84;80.85;101947.94;4115057;28;19937;-73
2023/09/26 06:37:39;;;;;;;;;;;;;;;14.88;81.13;101951.19;4115239;28;20440;-74
2023/09/26 06:39:41;;;;;;;;;;;;;;;14.90;80.92;101944.53;4113916;28;20053;-74
2023/09/26 06:41:43;;;;;;;;;;;;;;;14.93;80.70;101949.59;4114620;28;20444;-74
2023/09/26 06:43:46;;;;;;;;;;;;;;;14.99;80.70;101939.06;4113984;28;20363;-75
2023/09/26 06:45:48;;;;;;;;;;;;;;;15.02;80.61;101938.72;4110253;28;20017;-74
2023/09/26 06:47:50;;;;;;;;;;;;;;;15.05;81.00;101935.66;4108758;28;20029;-74
2023/09/26 06:49:52;;;;;;;;;;;;;;;15.09;80.88;101942.41;4112145;28;20020;-74
2023/09/26 06:51:55;;;;;;;;;;;;;;;15.13;80.50;101939.16;4111455;28;20029;-72
2023/09/26 06:53:57;;;;;;;;;;;;;;;15.17;80.23;101933.34;4113007;28;20064;-72
2023/09/26 06:55:59;;;;;;;;;;;;;;;15.22;79.89;101937.25;4107764;28;20455;-73
2023/09/26 06:58:01;;;;;;;;;;;;;;;15.27;80.02;101934.00;4112321;28;20020;-73
2023/09/26 07:00:12;;;;;;;;;;;;;;;15.32;79.92;101934.28;4113988;28;19933;-73
2023/09/26 07:02:14;;;;;;;;;;;;;;;15.38;79.67;101936.31;4109165;28;20464;-73
2023/09/26 07:04:16;;;;;;;;;;;;;;;15.43;79.89;101942.03;4113004;28;20365;-72
2023/09/26 07:06:18;;;;;;;;;;;;;;;15.47;79.71;101932.50;4113425;28;20016;-70
2023/09/26 07:08:20;;;;;;;;;;;;;;;15.52;79.65;101936.53;4113664;28;20005;-72
2023/09/26 07:10:23;;;;;;;;;;;;;;;15.57;79.40;101942.31;4112344;28;20443;-74
2023/09/26 07:12:26;;;;;;;;;;;;;;;15.61;79.14;101943.63;4111785;28;20384;-73
2023/09/26 07:14:32;;;;;;;;;;;;;;;15.65;79.26;101934.91;4113589;28;20021;-71
2023/09/26 07:16:36;;;;;;;;;;;;;;;15.70;79.40;101937.09;4114051;28;20329;-75
2023/09/26 07:18:40;;;;;;;;;;;;;;;15.73;80.18;101933.16;4120314;28;20048;-74
2023/09/26 07:20:44;;;;;;;;;;;;;;;15.76;79.60;101933.63;4113854;28;20045;-74
2023/09/26 07:22:46;;;;;;;;;;;;;;;15.78;79.55;101928.91;4113728;28;20021;-74
2023/09/26 07:24:50;;;;;;;;;;;;;;;15.84;79.84;101936.31;4113402;28;20365;-73
2023/09/26 07:26:52;;;;;;;;;;;;;;;15.89;79.31;101940.38;4114242;28;20080;-73
2023/09/26 07:28:54;;;;;;;;;;;;;;;15.93;79.83;101939.00;4112388;28;19985;-73
2023/09/26 07:30:56;;;;;;;;;;;;;;;15.97;79.45;101943.91;4113402;28;20737;-73
2023/09/26 07:32:58;;;;;;;;;;;;;;;16.01;79.66;101936.19;4112760;28;20029;-72
2023/09/26 07:35:00;;;;;;;;;;;;;;;16.06;79.44;101939.22;4114111;28;20001;-74
2023/09/26 07:37:02;;;;;;;;;;;;;;;16.10;79.07;101934.25;4113967;28;19922;-74
2023/09/26 07:39:05;;;;;;;;;;;;;;;16.13;78.94;101940.19;4113078;28;20028;-73
2023/09/26 07:41:09;;;;;;;;;;;;;;;16.17;78.62;101941.50;4113165;28;20013;-70
2023/09/26 07:43:10;;;;;;;;;;;;;;;16.21;78.77;101942.81;4113548;28;20016;-70
2023/09/26 07:45:14;;;;;;;;;;;;;;;16.26;78.27;101946.88;4114092;28;19926;-70
2023/09/26 07:47:15;;;;;;;;;;;;;;;16.30;78.16;101949.06;4112886;28;20372;-70
2023/09/26 07:49:17;;;;;;;;;;;;;;;16.34;77.78;101950.34;4113779;28;19921;-71
2023/09/26 07:51:19;;;;;;;;;;;;;;;16.38;77.81;101948.13;4113264;28;20448;-71
2023/09/26 07:53:21;;;;;;;;;;;;;;;16.40;77.38;101948.78;4113632;28;20505;-70
2023/09/26 07:55:24;;;;;;;;;;;;;;;16.42;77.76;101946.69;4112761;28;20028;-70
2023/09/26 07:57:27;;;;;;;;;;;;;;;16.45;77.22;101951.78;4113360;28;19966;-71
2023/09/26 07:59:29;;;;;;;;;;;;;;;16.46;76.85;101953.50;4113023;28;20045;-69
2023/09/26 08:01:31;;;;;;;;;;;;;;;16.49;76.53;101961.28;4112738;28;20001;-70
2023/09/26 08:03:33;;;;;;;;;;;;;;;16.51;76.87;101961.94;4113346;28;20045;-71
2023/09/26 08:05:35;;;;;;;;;;;;;;;16.51;77.76;101969.28;4113724;28;20028;-70
2023/09/26 08:07:38;;;;;;;;;;;;;;;16.48;78.57;101965.03;4113955;28;20013;-71
2023/09/26 08:09:40;;;;;;;;;;;;;;;16.45;78.91;101962.69;4113277;28;20008;-70
2023/09/26 08:11:42;;;;;;;;;;;;;;;16.45;79.12;101967.31;4113178;28;20017;-70
2023/09/26 08:13:45;;;;;;;;;;;;;;;16.42;78.96;101959.50;4112868;28;20021;-71
2023/09/26 08:15:47;;;;;;;;;;;;;;;16.41;79.29;101955.94;4113233;28;20016;-71
2023/09/26 08:17:49;;;;;;;;;;;;;;;16.39;79.09;101956.13;4113174;28;20315;-70
2023/09/26 08:19:50;;;;;;;;;;;;;;;16.42;78.84;101954.88;4112234;28;20046;-71
2023/09/26 08:21:52;;;;;;;;;;;;;;;16.46;78.35;101960.84;4111262;28;20312;-70
2023/09/26 08:23:54;;;;;;;;;;;;;;;16.51;77.90;101961.09;4112561;28;20012;-70
2023/09/26 08:25:57;;;;;;;;;;;;;;;16.53;77.04;101959.03;4112336;28;20016;-71
2023/09/26 08:27:59;;;;;;;;;;;;;;;16.57;76.43;101955.75;4112820;28;20336;-71
2023/09/26 08:30:02;;;;;;;;;;;;;;;16.64;75.72;101957.72;4112279;28;20371;-72
2023/09/26 08:32:05;;;;;;;;;;;;;;;16.67;75.59;101965.53;4112231;28;20016;-72
2023/09/26 08:34:07;;;;;;;;;;;;;;;16.71;75.42;101950.50;4112165;28;20017;-72
2023/09/26 08:36:16;;;;;;;;;;;;;;;16.75;74.67;101951.78;4113120;28;20012;-71
2023/09/26 08:38:17;;;;;;;;;;;;;;;16.82;74.16;101957.34;4112757;28;19969;-70
2023/09/26 08:40:19;;;;;;;;;;;;;;;16.87;73.82;101955.78;4112566;28;20013;-70
2023/09/26 08:42:21;;;;;;;;;;;;;;;16.96;73.55;101947.47;4112557;28;20014;-72
2023/09/26 08:44:25;;;;;;;;;;;;;;;17.07;73.23;101956.03;4112345;28;20029;-71
2023/09/26 08:46:28;;;;;;;;;;;;;;;17.18;73.02;101943.78;4113308;28;20468;-71
2023/09/26 08:48:31;;;;;;;;;;;;;;;17.35;72.89;101943.53;4113666;28;20021;-69
2023/09/26 08:50:32;;;;;;;;;;;;;;;17.48;72.63;101952.72;4112850;28;20017;-71
2023/09/26 08:52:34;;;;;;;;;;;;;;;17.62;72.94;101944.69;4113019;28;20377;-73
2023/09/26 08:54:36;;;;;;;;;;;;;;;17.77;72.26;101947.34;4113103;28;20008;-72
2023/09/26 08:56:38;;;;;;;;;;;;;;;17.92;71.97;101941.84;4112638;28;20009;-71
2023/09/26 08:58:40;;;;;;;;;;;;;;;18.04;71.40;101940.28;4112749;28;20376;-72
2023/09/26 09:00:42;;;;;;;;;;;;;;;18.18;71.21;101944.81;4112304;28;20341;-71
2023/09/26 09:02:46;;;;;;;;;;;;;;;18.31;70.87;101932.28;4112198;28;20032;-72
2023/09/26 09:04:48;;;;;;;;;;;;;;;18.43;70.53;101935.28;4112676;28;19986;-72
2023/09/26 09:07:00;;;;;;;;;;;;;;;18.55;70.40;101934.53;4113211;28;20044;-72
2023/09/26 09:09:09;;;;;;;;;;;;;;;18.67;69.86;101923.03;4112913;28;20329;-72
2023/09/26 09:11:11;;;;;;;;;;;;;;;18.78;69.68;101927.94;4111962;28;20431;-72
2023/09/26 09:13:13;;;;;;;;;;;;;;;18.89;69.39;101923.81;4112383;28;20016;-72
2023/09/26 09:15:19;;;;;;;;;;;;;;;18.99;69.11;101923.44;4112371;28;20012;-71
2023/09/26 09:17:21;;;;;;;;;;;;;;;19.08;68.54;101922.19;4112141;28;20040;-71
2023/09/26 09:19:25;;;;;;;;;;;;;;;19.18;68.66;101916.34;4111759;28;19926;-71
2023/09/26 09:21:30;;;;;;;;;;;;;;;19.22;68.38;101907.50;4111867;28;20016;-72
2023/09/26 09:23:31;;;;;;;;;;;;;;;19.32;68.30;101912.56;4112869;28;20033;-72
2023/09/26 09:25:33;;;;;;;;;;;;;;;19.38;67.98;101908.19;4112770;28;19926;-71
2023/09/26 09:27:38;;;;;;;;;;;;;;;19.44;67.92;101913.66;4112739;28;20523;-72
2023/09/26 09:29:40;;;;;;;;;;;;;;;19.50;67.81;101913.88;4112490;28;20021;-71
2023/09/26 09:31:42;;;;;;;;;;;;;;;19.54;67.64;101905.03;4112181;28;20021;-70
2023/09/26 09:33:45;;;;;;;;;;;;;;;19.58;67.46;101909.06;4112752;28;20029;-72
2023/09/26 09:35:49;;;;;;;;;;;;;;;19.62;67.24;101902.13;4112737;28;20191;-72
2023/09/26 09:37:50;;;;;;;;;;;;;;;19.65;67.37;101900.00;4112670;28;20008;-72
2023/09/26 09:39:52;;;;;;;;;;;;;;;19.68;67.07;101894.94;4112060;28;19926;-73
2023/09/26 09:41:57;;;;;;;;;;;;;;;19.70;67.32;101890.09;4111603;28;20033;-72
2023/09/26 09:43:59;;;;;;;;;;;;;;;19.72;67.32;101884.41;4112106;28;20024;-72
2023/09/26 09:46:02;;;;;;;;;;;;;;;19.72;67.07;101885.25;4114145;28;20030;-72
2023/09/26 09:48:06;;;;;;;;;;;;;;;19.74;67.17;101880.38;4114968;28;20012;-72
2023/09/26 09:50:08;;;;;;;;;;;;;;;19.73;67.24;101880.59;4114991;28;20017;-71
2023/09/26 09:52:12;;;;;;;;;;;;;;;19.71;67.43;101880.81;4115507;28;20014;-73
2023/09/26 09:54:17;;;;;;;;;;;;;;;19.69;67.39;101882.09;4115573;28;20349;-71
2023/09/26 09:56:19;;;;;;;;;;;;;;;19.67;67.57;101881.44;4115658;28;20009;-72
2023/09/26 09:58:24;;;;;;;;;;;;;;;19.64;67.63;101879.97;4115518;28;20439;-71
2023/09/26 10:00:26;;;;;;;;;;;;;;;19.61;67.92;101877.66;4114912;28;19954;-73
2023/09/26 10:02:28;;;;;;;;;;;;;;;19.59;67.95;101880.59;4114952;28;20375;-71
2023/09/26 10:04:31;;;;;;;;;;;;;;;19.58;68.00;101872.59;4115598;28;20017;-72
2023/09/26 10:06:33;;;;;;;;;;;;;;;19.57;68.29;101866.25;4115072;28;20342;-71
2023/09/26 10:08:37;;;;;;;;;;;;;;;19.56;68.30;101869.19;4114594;28;20388;-71
2023/09/26 10:10:40;;;;;;;;;;;;;;;19.56;68.61;101870.06;4114569;28;20009;-72
2023/09/26 10:12:42;;;;;;;;;;;;;;;19.55;68.65;101868.38;4114648;28;20016;-72
2023/09/26 10:14:44;;;;;;;;;;;;;;;19.58;68.79;101861.63;4115171;28;20033;-72
2023/09/26 10:16:45;;;;;;;;;;;;;;;19.58;69.11;101862.47;4114837;28;20013;-72
2023/09/26 10:18:47;;;;;;;;;;;;;;;19.60;69.31;101859.53;4114521;28;19925;-70
2023/09/26 10:20:49;;;;;;;;;;;;;;;19.62;69.22;101858.25;4114487;28;20439;-72
2023/09/26 10:22:52;;;;;;;;;;;;;;;19.65;69.38;101861.63;4114232;28;20366;-70
2023/09/26 10:24:55;;;;;;;;;;;;;;;19.68;69.20;101853.00;4114570;28;20049;-70
2023/09/26 10:27:08;;;;;;;;;;;;;;;19.70;69.38;101848.13;4114503;28;20024;-72
2023/09/26 10:29:12;;;;;;;;;;;;;;;19.73;69.41;101845.84;4114448;28;20835;-72